F/V La Mordoree — FGIA — position and weather

sailwx.info

Track history (hours):
 
Tides and Currents Weather Stations Pressure Air Temp Water Temp Dewpoint Dewpoint Depression Visibility Wind Speed Wind Dir Waves Ship Positions

F/V La Mordoree

Last reported at 2017-Sep-24 06:30 UTC. Time now 2017-Sep-24 06:56 UTC.
Position N 46°17' W 002°44'.

Length 18 m.

Type: Other ship. MMSI: 228248000.

Date/timePositionNaut miles runAvg speedWind from/ knotsBaromVisibWave heightAir tempDewpointWater temp
2017-Sep-24 06:30N 46°17' W 002°44'1 2.3
2017-Sep-24 05:57N 46°18' W 002°45'12 2.9
2017-Sep-24 01:43N 46°28' W 002°55'0 1.3
2017-Sep-24 01:30N 46°28' W 002°55'1 2.8
2017-Sep-24 01:00N 46°27' W 002°55'2 3.3
2017-Sep-24 00:24N 46°25' W 002°53'  
2017-Sep-21 17:24N 47°21' W 002°31'20 4.9
2017-Sep-21 13:15N 47°09' W 002°55'2 0.5
2017-Sep-21 09:01N 47°10' W 002°57'2 3.5
2017-Sep-21 08:32N 47°10' W 002°55'2 3.6
2017-Sep-21 08:03N 47°11' W 002°53'0 3.6
2017-Sep-21 08:00N 47°11' W 002°52'1 2.2
2017-Sep-21 07:25N 47°10' W 002°51'2 2.7
2017-Sep-21 06:32N 47°09' W 002°55'0 2.8
2017-Sep-21 06:29N 47°09' W 002°55'1 1.0
2017-Sep-21 05:59N 47°09' W 002°56'2 3.3
2017-Sep-21 05:25N 47°10' W 002°54'1 3.2
2017-Sep-21 05:00N 47°11' W 002°52'2 2.9
2017-Sep-21 04:22N 47°12' W 002°50'1 3.0
2017-Sep-21 03:59N 47°11' W 002°50'3 3.4
2017-Sep-21 03:05N 47°08' W 002°53'4 2.4
2017-Sep-21 01:33N 47°07' W 002°58'0 2.6
2017-Sep-21 01:30N 47°07' W 002°58'1 2.5
2017-Sep-21 00:58N 47°08' W 002°57'1 2.5
2017-Sep-21 00:30N 47°09' W 002°55'2 2.7
2017-Sep-20 23:55N 47°10' W 002°54'0 1.1
2017-Sep-20 23:30N 47°10' W 002°53'2 3.0
2017-Sep-20 23:00N 47°09' W 002°52'2 3.1
2017-Sep-20 22:29N 47°07' W 002°53'1 3.0
2017-Sep-20 22:00N 47°07' W 002°55'2 2.8
2017-Sep-20 21:18N 47°06' W 002°57'1 2.4
2017-Sep-20 20:47N 47°06' W 002°59'1 2.2
2017-Sep-20 20:27N 47°06' W 002°58'2 3.1
2017-Sep-20 19:56N 47°08' W 002°57'2 3.4
2017-Sep-20 19:20N 47°09' W 002°55'2 3.6
2017-Sep-20 18:53N 47°10' W 002°53'2 3.4
2017-Sep-20 18:26N 47°11' W 002°51'2 1.5
2017-Sep-20 17:19N 47°11' W 002°53'2 1.1
2017-Sep-20 15:15N 47°09' W 002°53'4 3.0
2017-Sep-20 14:01N 47°12' W 002°51'7 2.4
2017-Sep-20 11:00N 47°09' W 003°00'3 1.4
2017-Sep-20 08:53N 47°07' W 003°04'1 3.4
2017-Sep-20 08:30N 47°08' W 003°03'2 0.7
2017-Sep-20 05:54N 47°08' W 003°00'1 3.5
2017-Sep-20 05:30N 47°09' W 002°59'2 3.4
2017-Sep-20 04:59N 47°09' W 002°56'2 3.3
2017-Sep-20 04:27N 47°10' W 002°54'2 5.4
2017-Sep-20 04:00N 47°12' W 002°51'5 8.9
2017-Sep-20 03:30N 47°14' W 002°46'4 8.7
2017-Sep-20 03:00N 47°18' W 002°41'4 8.5
2017-Sep-20 02:30N 47°20' W 002°36'4 7.2
2017-Sep-20 02:00N 47°21' W 002°31'0 0.0
2017-Sep-19 17:53N 47°21' W 002°31'25 1.5
2017-Sep-19 01:25N 47°06' W 003°02'1 2.5
2017-Sep-19 00:54N 47°07' W 003°00'7 2.8
2017-Sep-18 22:26N 47°01' W 002°56'3 1.1
2017-Sep-18 19:23N 47°03' W 002°59'3 0.3
2017-Sep-18 08:10N 47°01' W 002°56'1 3.2
2017-Sep-18 07:57N 47°01' W 002°55'15 3.2
2017-Sep-18 03:27N 47°09' W 002°37'4 9.4
2017-Sep-18 03:00N 47°13' W 002°36'5 9.3
2017-Sep-18 02:31N 47°18' W 002°35'3 0.3
2017-Sep-17 15:59N 47°19' W 002°39'17 0.5
2017-Sep-16 08:16N 47°04' W 002°26'1 3.4
2017-Sep-16 07:57N 47°04' W 002°27'1 0.8
2017-Sep-16 06:07N 47°05' W 002°26'0 3.0
2017-Sep-16 06:00N 47°04' W 002°26'2 2.9
2017-Sep-16 05:18N 47°03' W 002°28'3 1.8
2017-Sep-16 03:33N 47°05' W 002°25'0 5.2
2017-Sep-16 03:28N 47°05' W 002°26'16 0.9
2017-Sep-15 10:07N 47°14' W 002°46'1 3.6
2017-Sep-15 09:57N 47°14' W 002°46'4 8.8
2017-Sep-15 09:29N 47°17' W 002°42'4 8.8
2017-Sep-15 09:00N 47°19' W 002°36'  
Track history (hours):
 
Tides and Currents Weather Stations Pressure Air Temp Water Temp Dewpoint Dewpoint Depression Visibility Wind Speed Wind Dir Waves Ship Positions

F/V La Mordoree

Last reported at 2017-Sep-24 06:30 UTC. Time now 2017-Sep-24 06:56 UTC.
Position N 46°17' W 002°44'.

Length 18 m.

Type: Other ship. MMSI: 228248000.

Date/timePositionNaut miles runAvg speedWind from/ knotsBaromVisibWave heightAir tempDewpointWater temp
2017-Sep-24 06:30N 46°17' W 002°44'1 2.3
2017-Sep-24 05:57N 46°18' W 002°45'12 2.9
2017-Sep-24 01:43N 46°28' W 002°55'0 1.3
2017-Sep-24 01:30N 46°28' W 002°55'1 2.8
2017-Sep-24 01:00N 46°27' W 002°55'2 3.3
2017-Sep-24 00:24N 46°25' W 002°53'  
2017-Sep-21 17:24N 47°21' W 002°31'20 4.9
2017-Sep-21 13:15N 47°09' W 002°55'2 0.5
2017-Sep-21 09:01N 47°10' W 002°57'2 3.5
2017-Sep-21 08:32N 47°10' W 002°55'2 3.6
2017-Sep-21 08:03N 47°11' W 002°53'0 3.6
2017-Sep-21 08:00N 47°11' W 002°52'1 2.2
2017-Sep-21 07:25N 47°10' W 002°51'2 2.7
2017-Sep-21 06:32N 47°09' W 002°55'0 2.8
2017-Sep-21 06:29N 47°09' W 002°55'1 1.0
2017-Sep-21 05:59N 47°09' W 002°56'2 3.3
2017-Sep-21 05:25N 47°10' W 002°54'1 3.2
2017-Sep-21 05:00N 47°11' W 002°52'2 2.9
2017-Sep-21 04:22N 47°12' W 002°50'1 3.0
2017-Sep-21 03:59N 47°11' W 002°50'3 3.4
2017-Sep-21 03:05N 47°08' W 002°53'4 2.4
2017-Sep-21 01:33N 47°07' W 002°58'0 2.6
2017-Sep-21 01:30N 47°07' W 002°58'1 2.5
2017-Sep-21 00:58N 47°08' W 002°57'1 2.5
2017-Sep-21 00:30N 47°09' W 002°55'2 2.7
2017-Sep-20 23:55N 47°10' W 002°54'0 1.1
2017-Sep-20 23:30N 47°10' W 002°53'2 3.0
2017-Sep-20 23:00N 47°09' W 002°52'2 3.1
2017-Sep-20 22:29N 47°07' W 002°53'1 3.0
2017-Sep-20 22:00N 47°07' W 002°55'2 2.8
2017-Sep-20 21:18N 47°06' W 002°57'1 2.4
2017-Sep-20 20:47N 47°06' W 002°59'1 2.2
2017-Sep-20 20:27N 47°06' W 002°58'2 3.1
2017-Sep-20 19:56N 47°08' W 002°57'2 3.4
2017-Sep-20 19:20N 47°09' W 002°55'2 3.6
2017-Sep-20 18:53N 47°10' W 002°53'2 3.4
2017-Sep-20 18:26N 47°11' W 002°51'2 1.5
2017-Sep-20 17:19N 47°11' W 002°53'2 1.1
2017-Sep-20 15:15N 47°09' W 002°53'4 3.0
2017-Sep-20 14:01N 47°12' W 002°51'7 2.4
2017-Sep-20 11:00N 47°09' W 003°00'3 1.4
2017-Sep-20 08:53N 47°07' W 003°04'1 3.4
2017-Sep-20 08:30N 47°08' W 003°03'2 0.7
2017-Sep-20 05:54N 47°08' W 003°00'1 3.5
2017-Sep-20 05:30N 47°09' W 002°59'2 3.4
2017-Sep-20 04:59N 47°09' W 002°56'2 3.3
2017-Sep-20 04:27N 47°10' W 002°54'2 5.4
2017-Sep-20 04:00N 47°12' W 002°51'5 8.9
2017-Sep-20 03:30N 47°14' W 002°46'4 8.7
2017-Sep-20 03:00N 47°18' W 002°41'4 8.5
2017-Sep-20 02:30N 47°20' W 002°36'4 7.2
2017-Sep-20 02:00N 47°21' W 002°31'0 0.0
2017-Sep-19 17:53N 47°21' W 002°31'25 1.5
2017-Sep-19 01:25N 47°06' W 003°02'1 2.5
2017-Sep-19 00:54N 47°07' W 003°00'7 2.8
2017-Sep-18 22:26N 47°01' W 002°56'3 1.1
2017-Sep-18 19:23N 47°03' W 002°59'3 0.3
2017-Sep-18 08:10N 47°01' W 002°56'1 3.2
2017-Sep-18 07:57N 47°01' W 002°55'15 3.2
2017-Sep-18 03:27N 47°09' W 002°37'4 9.4
2017-Sep-18 03:00N 47°13' W 002°36'5 9.3
2017-Sep-18 02:31N 47°18' W 002°35'3 0.3
2017-Sep-17 15:59N 47°19' W 002°39'17 0.5
2017-Sep-16 08:16N 47°04' W 002°26'1 3.4
2017-Sep-16 07:57N 47°04' W 002°27'1 0.8
2017-Sep-16 06:07N 47°05' W 002°26'0 3.0
2017-Sep-16 06:00N 47°04' W 002°26'2 2.9
2017-Sep-16 05:18N 47°03' W 002°28'3 1.8
2017-Sep-16 03:33N 47°05' W 002°25'0 5.2
2017-Sep-16 03:28N 47°05' W 002°26'16 0.9
2017-Sep-15 10:07N 47°14' W 002°46'1 3.6
2017-Sep-15 09:57N 47°14' W 002°46'4 8.8
2017-Sep-15 09:29N 47°17' W 002°42'4 8.8
2017-Sep-15 09:00N 47°19' W 002°36'  

Dump ship's entire track history